sensor_id;sensor_type;location;lat;lon;timestamp;P1;durP1;ratioP1;P2;durP2;ratioP2
5127;SDS011;2582;48.770;9.190;2022-07-22T00:01:49;7.50;;;6.80;;
5127;SDS011;2582;48.770;9.190;2022-07-22T00:04:15;7.27;;;6.67;;
5127;SDS011;2582;48.770;9.190;2022-07-22T00:06:41;8.23;;;7.63;;
5127;SDS011;2582;48.770;9.190;2022-07-22T00:09:07;7.90;;;7.20;;
5127;SDS011;2582;48.770;9.190;2022-07-22T00:11:34;6.93;;;6.23;;
5127;SDS011;2582;48.770;9.190;2022-07-22T00:14:00;7.73;;;7.00;;
5127;SDS011;2582;48.770;9.190;2022-07-22T00:16:25;7.63;;;7.03;;
5127;SDS011;2582;48.770;9.190;2022-07-22T00:18:51;8.43;;;7.63;;
5127;SDS011;2582;48.770;9.190;2022-07-22T00:21:16;7.20;;;6.57;;
5127;SDS011;2582;48.770;9.190;2022-07-22T00:23:42;6.83;;;6.33;;
5127;SDS011;2582;48.770;9.190;2022-07-22T00:26:08;7.57;;;6.93;;
5127;SDS011;2582;48.770;9.190;2022-07-22T00:28:34;7.60;;;7.00;;
5127;SDS011;2582;48.770;9.190;2022-07-22T00:30:59;8.50;;;7.30;;
5127;SDS011;2582;48.770;9.190;2022-07-22T00:33:25;7.20;;;6.67;;
5127;SDS011;2582;48.770;9.190;2022-07-22T00:35:51;7.97;;;7.23;;
5127;SDS011;2582;48.770;9.190;2022-07-22T00:38:16;10.77;;;7.07;;
5127;SDS011;2582;48.770;9.190;2022-07-22T00:40:42;6.93;;;6.33;;
5127;SDS011;2582;48.770;9.190;2022-07-22T00:43:07;7.30;;;6.70;;
5127;SDS011;2582;48.770;9.190;2022-07-22T00:45:33;7.80;;;7.00;;
5127;SDS011;2582;48.770;9.190;2022-07-22T00:47:59;7.73;;;7.00;;
5127;SDS011;2582;48.770;9.190;2022-07-22T00:50:24;7.50;;;6.80;;
5127;SDS011;2582;48.770;9.190;2022-07-22T00:52:50;8.13;;;7.33;;
5127;SDS011;2582;48.770;9.190;2022-07-22T00:55:16;7.30;;;6.60;;
5127;SDS011;2582;48.770;9.190;2022-07-22T00:57:42;7.87;;;7.17;;
5127;SDS011;2582;48.770;9.190;2022-07-22T01:00:09;7.77;;;7.17;;
5127;SDS011;2582;48.770;9.190;2022-07-22T01:02:37;7.87;;;7.27;;
5127;SDS011;2582;48.770;9.190;2022-07-22T01:05:03;7.37;;;6.57;;
5127;SDS011;2582;48.770;9.190;2022-07-22T01:07:30;8.40;;;7.47;;
5127;SDS011;2582;48.770;9.190;2022-07-22T01:09:56;7.07;;;6.37;;
5127;SDS011;2582;48.770;9.190;2022-07-22T01:12:21;7.13;;;6.43;;
5127;SDS011;2582;48.770;9.190;2022-07-22T01:14:47;8.17;;;7.27;;
5127;SDS011;2582;48.770;9.190;2022-07-22T01:17:12;7.83;;;6.90;;
5127;SDS011;2582;48.770;9.190;2022-07-22T01:19:38;8.60;;;7.17;;
5127;SDS011;2582;48.770;9.190;2022-07-22T01:22:04;7.50;;;6.90;;
5127;SDS011;2582;48.770;9.190;2022-07-22T01:24:30;7.23;;;6.63;;
5127;SDS011;2582;48.770;9.190;2022-07-22T01:26:56;8.03;;;7.33;;
5127;SDS011;2582;48.770;9.190;2022-07-22T01:29:22;8.33;;;7.63;;
5127;SDS011;2582;48.770;9.190;2022-07-22T01:31:47;8.93;;;8.03;;
5127;SDS011;2582;48.770;9.190;2022-07-22T01:34:13;8.60;;;7.90;;
5127;SDS011;2582;48.770;9.190;2022-07-22T01:36:38;9.30;;;8.50;;
5127;SDS011;2582;48.770;9.190;2022-07-22T01:39:04;8.30;;;7.23;;
5127;SDS011;2582;48.770;9.190;2022-07-22T01:41:30;7.90;;;7.20;;
5127;SDS011;2582;48.770;9.190;2022-07-22T01:43:55;8.57;;;7.77;;
5127;SDS011;2582;48.770;9.190;2022-07-22T01:46:21;9.00;;;8.30;;
5127;SDS011;2582;48.770;9.190;2022-07-22T01:48:48;9.23;;;8.43;;
5127;SDS011;2582;48.770;9.190;2022-07-22T01:51:14;8.33;;;7.53;;
5127;SDS011;2582;48.770;9.190;2022-07-22T01:53:40;8.17;;;7.57;;
5127;SDS011;2582;48.770;9.190;2022-07-22T01:56:06;8.00;;;7.40;;
5127;SDS011;2582;48.770;9.190;2022-07-22T01:58:31;8.37;;;7.67;;
5127;SDS011;2582;48.770;9.190;2022-07-22T02:00:58;8.40;;;7.60;;
5127;SDS011;2582;48.770;9.190;2022-07-22T02:03:23;8.50;;;7.70;;
5127;SDS011;2582;48.770;9.190;2022-07-22T02:05:49;8.57;;;7.87;;
5127;SDS011;2582;48.770;9.190;2022-07-22T02:08:14;8.30;;;7.60;;
5127;SDS011;2582;48.770;9.190;2022-07-22T02:10:40;9.77;;;8.67;;
5127;SDS011;2582;48.770;9.190;2022-07-22T02:13:06;8.57;;;7.77;;
5127;SDS011;2582;48.770;9.190;2022-07-22T02:15:32;8.50;;;7.80;;
5127;SDS011;2582;48.770;9.190;2022-07-22T02:17:58;8.60;;;7.80;;
5127;SDS011;2582;48.770;9.190;2022-07-22T02:20:23;8.70;;;7.70;;
5127;SDS011;2582;48.770;9.190;2022-07-22T02:22:49;8.80;;;8.10;;
5127;SDS011;2582;48.770;9.190;2022-07-22T02:25:15;9.43;;;8.57;;
5127;SDS011;2582;48.770;9.190;2022-07-22T02:27:41;11.63;;;8.27;;
5127;SDS011;2582;48.770;9.190;2022-07-22T02:30:07;8.03;;;7.33;;
5127;SDS011;2582;48.770;9.190;2022-07-22T02:32:34;8.90;;;8.10;;
5127;SDS011;2582;48.770;9.190;2022-07-22T02:35:00;8.77;;;8.00;;
5127;SDS011;2582;48.770;9.190;2022-07-22T02:37:25;8.87;;;7.97;;
5127;SDS011;2582;48.770;9.190;2022-07-22T02:39:51;10.30;;;9.60;;
5127;SDS011;2582;48.770;9.190;2022-07-22T02:42:17;10.30;;;9.40;;
5127;SDS011;2582;48.770;9.190;2022-07-22T02:44:42;9.30;;;8.50;;
5127;SDS011;2582;48.770;9.190;2022-07-22T02:47:08;8.53;;;7.90;;
5127;SDS011;2582;48.770;9.190;2022-07-22T02:49:34;9.40;;;8.40;;
5127;SDS011;2582;48.770;9.190;2022-07-22T02:51:59;9.53;;;8.63;;
5127;SDS011;2582;48.770;9.190;2022-07-22T02:54:25;8.90;;;8.10;;
5127;SDS011;2582;48.770;9.190;2022-07-22T02:56:51;10.77;;;9.80;;
5127;SDS011;2582;48.770;9.190;2022-07-22T02:59:16;8.57;;;7.87;;
5127;SDS011;2582;48.770;9.190;2022-07-22T03:01:42;9.43;;;8.60;;
5127;SDS011;2582;48.770;9.190;2022-07-22T03:04:08;8.50;;;7.80;;
5127;SDS011;2582;48.770;9.190;2022-07-22T03:06:33;9.77;;;9.07;;
5127;SDS011;2582;48.770;9.190;2022-07-22T03:08:59;10.33;;;9.40;;
5127;SDS011;2582;48.770;9.190;2022-07-22T03:11:24;9.03;;;8.13;;
5127;SDS011;2582;48.770;9.190;2022-07-22T03:13:50;9.07;;;8.37;;
5127;SDS011;2582;48.770;9.190;2022-07-22T03:16:15;10.30;;;9.40;;
5127;SDS011;2582;48.770;9.190;2022-07-22T03:18:41;9.93;;;8.97;;
5127;SDS011;2582;48.770;9.190;2022-07-22T03:21:07;11.27;;;10.23;;
5127;SDS011;2582;48.770;9.190;2022-07-22T03:23:32;10.00;;;9.00;;
5127;SDS011;2582;48.770;9.190;2022-07-22T03:25:58;8.90;;;8.20;;
5127;SDS011;2582;48.770;9.190;2022-07-22T03:28:23;9.63;;;8.63;;
5127;SDS011;2582;48.770;9.190;2022-07-22T03:30:49;9.73;;;8.93;;
5127;SDS011;2582;48.770;9.190;2022-07-22T03:33:14;10.13;;;8.93;;
5127;SDS011;2582;48.770;9.190;2022-07-22T03:35:40;10.17;;;9.30;;
5127;SDS011;2582;48.770;9.190;2022-07-22T03:38:06;10.83;;;9.87;;
5127;SDS011;2582;48.770;9.190;2022-07-22T03:40:31;10.27;;;9.37;;
5127;SDS011;2582;48.770;9.190;2022-07-22T03:42:57;10.17;;;9.13;;
5127;SDS011;2582;48.770;9.190;2022-07-22T03:45:23;10.13;;;9.33;;
5127;SDS011;2582;48.770;9.190;2022-07-22T03:47:48;11.03;;;10.00;;
5127;SDS011;2582;48.770;9.190;2022-07-22T03:50:14;10.03;;;9.13;;
5127;SDS011;2582;48.770;9.190;2022-07-22T03:52:39;11.10;;;10.10;;
5127;SDS011;2582;48.770;9.190;2022-07-22T03:55:06;11.10;;;10.00;;
5127;SDS011;2582;48.770;9.190;2022-07-22T03:57:32;12.00;;;10.90;;
5127;SDS011;2582;48.770;9.190;2022-07-22T03:59:58;12.07;;;10.87;;
5127;SDS011;2582;48.770;9.190;2022-07-22T04:02:24;10.33;;;9.43;;
5127;SDS011;2582;48.770;9.190;2022-07-22T04:04:49;10.17;;;9.33;;
5127;SDS011;2582;48.770;9.190;2022-07-22T04:07:15;10.60;;;9.63;;
5127;SDS011;2582;48.770;9.190;2022-07-22T04:09:40;10.60;;;9.60;;
5127;SDS011;2582;48.770;9.190;2022-07-22T04:12:06;10.83;;;9.80;;
5127;SDS011;2582;48.770;9.190;2022-07-22T04:17:37;10.80;;;9.97;;
5127;SDS011;2582;48.770;9.190;2022-07-22T04:20:03;10.10;;;9.30;;
5127;SDS011;2582;48.770;9.190;2022-07-22T04:22:30;11.73;;;9.50;;
5127;SDS011;2582;48.770;9.190;2022-07-22T04:24:55;10.83;;;9.83;;
5127;SDS011;2582;48.770;9.190;2022-07-22T04:27:21;11.93;;;10.93;;
5127;SDS011;2582;48.770;9.190;2022-07-22T04:29:48;13.20;;;11.90;;
5127;SDS011;2582;48.770;9.190;2022-07-22T04:32:14;15.70;;;13.60;;
5127;SDS011;2582;48.770;9.190;2022-07-22T04:34:39;12.80;;;11.50;;
5127;SDS011;2582;48.770;9.190;2022-07-22T04:37:06;12.43;;;11.27;;
5127;SDS011;2582;48.770;9.190;2022-07-22T04:39:32;12.80;;;11.60;;
5127;SDS011;2582;48.770;9.190;2022-07-22T04:41:58;11.50;;;10.50;;
5127;SDS011;2582;48.770;9.190;2022-07-22T04:44:23;11.90;;;10.90;;
5127;SDS011;2582;48.770;9.190;2022-07-22T04:46:49;12.40;;;11.40;;
5127;SDS011;2582;48.770;9.190;2022-07-22T04:49:14;12.37;;;11.33;;
5127;SDS011;2582;48.770;9.190;2022-07-22T04:51:40;11.83;;;10.83;;
5127;SDS011;2582;48.770;9.190;2022-07-22T04:54:06;12.20;;;11.00;;
5127;SDS011;2582;48.770;9.190;2022-07-22T04:56:31;13.60;;;12.37;;
5127;SDS011;2582;48.770;9.190;2022-07-22T04:58:57;11.43;;;10.30;;
5127;SDS011;2582;48.770;9.190;2022-07-22T05:01:22;11.47;;;10.43;;
5127;SDS011;2582;48.770;9.190;2022-07-22T05:03:48;12.67;;;11.67;;
5127;SDS011;2582;48.770;9.190;2022-07-22T05:06:14;12.53;;;11.43;;
5127;SDS011;2582;48.770;9.190;2022-07-22T05:08:39;10.70;;;9.77;;
5127;SDS011;2582;48.770;9.190;2022-07-22T05:11:06;13.57;;;12.30;;
5127;SDS011;2582;48.770;9.190;2022-07-22T05:13:32;11.77;;;10.70;;
5127;SDS011;2582;48.770;9.190;2022-07-22T05:16:01;12.23;;;11.13;;
5127;SDS011;2582;48.770;9.190;2022-07-22T05:18:29;11.57;;;10.57;;
5127;SDS011;2582;48.770;9.190;2022-07-22T05:20:54;12.37;;;11.13;;
5127;SDS011;2582;48.770;9.190;2022-07-22T05:23:20;12.07;;;10.90;;
5127;SDS011;2582;48.770;9.190;2022-07-22T05:25:45;12.40;;;11.23;;
5127;SDS011;2582;48.770;9.190;2022-07-22T05:28:11;12.33;;;11.30;;
5127;SDS011;2582;48.770;9.190;2022-07-22T05:30:36;13.03;;;11.73;;
5127;SDS011;2582;48.770;9.190;2022-07-22T05:33:02;12.93;;;11.73;;
5127;SDS011;2582;48.770;9.190;2022-07-22T05:35:28;15.60;;;12.10;;
5127;SDS011;2582;48.770;9.190;2022-07-22T05:37:53;14.47;;;13.17;;
5127;SDS011;2582;48.770;9.190;2022-07-22T05:40:19;14.07;;;12.67;;
5127;SDS011;2582;48.770;9.190;2022-07-22T05:42:44;13.43;;;12.10;;
5127;SDS011;2582;48.770;9.190;2022-07-22T05:45:10;12.20;;;10.90;;
5127;SDS011;2582;48.770;9.190;2022-07-22T05:47:36;12.80;;;11.80;;
5127;SDS011;2582;48.770;9.190;2022-07-22T05:50:01;16.60;;;13.23;;
5127;SDS011;2582;48.770;9.190;2022-07-22T05:52:27;13.90;;;12.70;;
5127;SDS011;2582;48.770;9.190;2022-07-22T05:54:53;14.13;;;12.67;;
5127;SDS011;2582;48.770;9.190;2022-07-22T05:57:18;14.77;;;13.57;;
5127;SDS011;2582;48.770;9.190;2022-07-22T05:59:44;13.37;;;12.17;;
5127;SDS011;2582;48.770;9.190;2022-07-22T06:02:09;14.00;;;12.80;;
5127;SDS011;2582;48.770;9.190;2022-07-22T06:07:15;13.43;;;12.30;;
5127;SDS011;2582;48.770;9.190;2022-07-22T06:09:41;12.23;;;11.23;;
5127;SDS011;2582;48.770;9.190;2022-07-22T06:12:06;14.90;;;12.97;;
5127;SDS011;2582;48.770;9.190;2022-07-22T06:14:32;15.77;;;13.37;;
5127;SDS011;2582;48.770;9.190;2022-07-22T06:16:58;12.93;;;11.73;;
5127;SDS011;2582;48.770;9.190;2022-07-22T06:19:24;13.07;;;11.77;;
5127;SDS011;2582;48.770;9.190;2022-07-22T06:21:50;14.10;;;12.80;;
5127;SDS011;2582;48.770;9.190;2022-07-22T06:24:16;12.57;;;11.47;;
5127;SDS011;2582;48.770;9.190;2022-07-22T06:26:41;14.17;;;12.87;;
5127;SDS011;2582;48.770;9.190;2022-07-22T06:29:07;13.50;;;12.20;;
5127;SDS011;2582;48.770;9.190;2022-07-22T06:31:33;13.93;;;12.63;;
5127;SDS011;2582;48.770;9.190;2022-07-22T06:33:58;13.57;;;12.27;;
5127;SDS011;2582;48.770;9.190;2022-07-22T06:36:24;13.07;;;11.70;;
5127;SDS011;2582;48.770;9.190;2022-07-22T06:38:49;14.37;;;12.90;;
5127;SDS011;2582;48.770;9.190;2022-07-22T06:41:15;13.50;;;12.30;;
5127;SDS011;2582;48.770;9.190;2022-07-22T06:43:44;15.77;;;14.30;;
5127;SDS011;2582;48.770;9.190;2022-07-22T06:46:10;13.00;;;11.90;;
5127;SDS011;2582;48.770;9.190;2022-07-22T06:48:35;15.40;;;14.00;;
5127;SDS011;2582;48.770;9.190;2022-07-22T06:51:01;13.13;;;12.03;;
5127;SDS011;2582;48.770;9.190;2022-07-22T06:53:27;14.03;;;12.67;;
5127;SDS011;2582;48.770;9.190;2022-07-22T06:55:52;14.13;;;12.67;;
5127;SDS011;2582;48.770;9.190;2022-07-22T06:58:18;13.83;;;12.40;;
5127;SDS011;2582;48.770;9.190;2022-07-22T07:00:44;14.63;;;13.23;;
5127;SDS011;2582;48.770;9.190;2022-07-22T07:03:09;14.50;;;13.00;;
5127;SDS011;2582;48.770;9.190;2022-07-22T07:05:35;14.90;;;13.40;;
5127;SDS011;2582;48.770;9.190;2022-07-22T07:08:01;13.17;;;12.07;;
5127;SDS011;2582;48.770;9.190;2022-07-22T07:10:27;14.70;;;13.30;;
5127;SDS011;2582;48.770;9.190;2022-07-22T07:12:58;15.13;;;13.83;;
5127;SDS011;2582;48.770;9.190;2022-07-22T07:15:25;14.53;;;13.13;;
5127;SDS011;2582;48.770;9.190;2022-07-22T07:17:51;14.43;;;13.13;;
5127;SDS011;2582;48.770;9.190;2022-07-22T07:20:18;13.57;;;12.47;;
5127;SDS011;2582;48.770;9.190;2022-07-22T07:22:43;13.53;;;12.30;;
5127;SDS011;2582;48.770;9.190;2022-07-22T07:25:09;13.90;;;12.60;;
5127;SDS011;2582;48.770;9.190;2022-07-22T07:27:35;13.40;;;12.17;;
5127;SDS011;2582;48.770;9.190;2022-07-22T07:30:01;12.83;;;11.53;;
5127;SDS011;2582;48.770;9.190;2022-07-22T07:32:28;13.53;;;11.83;;
5127;SDS011;2582;48.770;9.190;2022-07-22T07:34:54;13.23;;;12.03;;
5127;SDS011;2582;48.770;9.190;2022-07-22T07:37:19;11.63;;;10.53;;
5127;SDS011;2582;48.770;9.190;2022-07-22T07:39:45;12.90;;;11.60;;
5127;SDS011;2582;48.770;9.190;2022-07-22T07:42:11;12.80;;;11.60;;
5127;SDS011;2582;48.770;9.190;2022-07-22T07:44:36;14.73;;;11.90;;
5127;SDS011;2582;48.770;9.190;2022-07-22T07:47:02;12.43;;;11.23;;
5127;SDS011;2582;48.770;9.190;2022-07-22T07:49:28;13.47;;;12.20;;
5127;SDS011;2582;48.770;9.190;2022-07-22T07:51:53;12.67;;;11.60;;
5127;SDS011;2582;48.770;9.190;2022-07-22T07:54:19;14.83;;;12.10;;
5127;SDS011;2582;48.770;9.190;2022-07-22T07:56:45;13.60;;;12.30;;
5127;SDS011;2582;48.770;9.190;2022-07-22T07:59:11;13.77;;;12.57;;
5127;SDS011;2582;48.770;9.190;2022-07-22T08:01:37;14.13;;;12.73;;
5127;SDS011;2582;48.770;9.190;2022-07-22T08:04:02;16.20;;;13.03;;
5127;SDS011;2582;48.770;9.190;2022-07-22T08:06:28;16.67;;;13.37;;
5127;SDS011;2582;48.770;9.190;2022-07-22T08:08:54;12.00;;;10.90;;
5127;SDS011;2582;48.770;9.190;2022-07-22T08:11:19;14.17;;;12.87;;
5127;SDS011;2582;48.770;9.190;2022-07-22T08:13:45;15.37;;;13.60;;
5127;SDS011;2582;48.770;9.190;2022-07-22T08:16:10;13.97;;;12.60;;
5127;SDS011;2582;48.770;9.190;2022-07-22T08:18:36;12.47;;;11.20;;
5127;SDS011;2582;48.770;9.190;2022-07-22T08:21:02;15.00;;;13.60;;
5127;SDS011;2582;48.770;9.190;2022-07-22T08:23:27;13.10;;;11.90;;
5127;SDS011;2582;48.770;9.190;2022-07-22T08:25:53;13.17;;;11.87;;
5127;SDS011;2582;48.770;9.190;2022-07-22T08:28:19;14.27;;;13.07;;
5127;SDS011;2582;48.770;9.190;2022-07-22T08:30:44;14.40;;;13.00;;
5127;SDS011;2582;48.770;9.190;2022-07-22T08:33:10;13.30;;;12.10;;
5127;SDS011;2582;48.770;9.190;2022-07-22T08:35:36;13.70;;;12.50;;
5127;SDS011;2582;48.770;9.190;2022-07-22T08:38:02;14.53;;;13.03;;
5127;SDS011;2582;48.770;9.190;2022-07-22T08:40:28;12.70;;;11.50;;
5127;SDS011;2582;48.770;9.190;2022-07-22T08:42:53;12.97;;;11.83;;
5127;SDS011;2582;48.770;9.190;2022-07-22T08:45:19;12.63;;;11.63;;
5127;SDS011;2582;48.770;9.190;2022-07-22T08:47:46;12.40;;;11.20;;
5127;SDS011;2582;48.770;9.190;2022-07-22T08:50:13;12.03;;;10.83;;
5127;SDS011;2582;48.770;9.190;2022-07-22T08:52:39;13.13;;;11.93;;
5127;SDS011;2582;48.770;9.190;2022-07-22T08:55:05;13.67;;;12.23;;
5127;SDS011;2582;48.770;9.190;2022-07-22T08:57:32;12.57;;;11.50;;
5127;SDS011;2582;48.770;9.190;2022-07-22T08:59:58;12.27;;;11.23;;
5127;SDS011;2582;48.770;9.190;2022-07-22T09:02:26;13.03;;;11.90;;
5127;SDS011;2582;48.770;9.190;2022-07-22T09:04:59;12.77;;;11.70;;
5127;SDS011;2582;48.770;9.190;2022-07-22T09:07:31;12.80;;;11.70;;
5127;SDS011;2582;48.770;9.190;2022-07-22T09:09:59;12.80;;;11.50;;
5127;SDS011;2582;48.770;9.190;2022-07-22T09:12:26;12.80;;;11.50;;
5127;SDS011;2582;48.770;9.190;2022-07-22T09:14:57;12.73;;;11.63;;
5127;SDS011;2582;48.770;9.190;2022-07-22T09:19:58;12.50;;;10.40;;
5127;SDS011;2582;48.770;9.190;2022-07-22T09:24:56;12.63;;;11.47;;
5127;SDS011;2582;48.770;9.190;2022-07-22T09:27:26;12.83;;;11.53;;
5127;SDS011;2582;48.770;9.190;2022-07-22T09:29:52;11.63;;;10.67;;
5127;SDS011;2582;48.770;9.190;2022-07-22T09:32:18;11.90;;;9.77;;
5127;SDS011;2582;48.770;9.190;2022-07-22T09:34:44;11.40;;;10.40;;
5127;SDS011;2582;48.770;9.190;2022-07-22T09:37:10;11.70;;;10.60;;
5127;SDS011;2582;48.770;9.190;2022-07-22T09:39:36;11.83;;;10.87;;
5127;SDS011;2582;48.770;9.190;2022-07-22T09:42:03;11.90;;;10.80;;
5127;SDS011;2582;48.770;9.190;2022-07-22T09:44:30;12.23;;;10.93;;
5127;SDS011;2582;48.770;9.190;2022-07-22T09:46:56;11.73;;;10.63;;
5127;SDS011;2582;48.770;9.190;2022-07-22T09:49:35;11.60;;;10.50;;
5127;SDS011;2582;48.770;9.190;2022-07-22T09:52:05;10.50;;;9.50;;
5127;SDS011;2582;48.770;9.190;2022-07-22T09:54:31;11.27;;;10.37;;
5127;SDS011;2582;48.770;9.190;2022-07-22T09:56:57;10.83;;;9.90;;
5127;SDS011;2582;48.770;9.190;2022-07-22T09:59:23;16.70;;;10.60;;
5127;SDS011;2582;48.770;9.190;2022-07-22T10:01:50;9.53;;;8.67;;
5127;SDS011;2582;48.770;9.190;2022-07-22T10:04:20;10.47;;;9.47;;
5127;SDS011;2582;48.770;9.190;2022-07-22T10:06:47;9.37;;;8.60;;
5127;SDS011;2582;48.770;9.190;2022-07-22T10:09:14;10.50;;;9.50;;
5127;SDS011;2582;48.770;9.190;2022-07-22T10:11:42;10.17;;;9.40;;
5127;SDS011;2582;48.770;9.190;2022-07-22T10:14:12;10.63;;;9.73;;
5127;SDS011;2582;48.770;9.190;2022-07-22T10:16:39;9.90;;;9.00;;
5127;SDS011;2582;48.770;9.190;2022-07-22T10:19:05;11.10;;;10.00;;
5127;SDS011;2582;48.770;9.190;2022-07-22T10:21:32;10.43;;;9.43;;
5127;SDS011;2582;48.770;9.190;2022-07-22T10:24:20;10.57;;;9.63;;
5127;SDS011;2582;48.770;9.190;2022-07-22T10:26:55;10.30;;;9.30;;
5127;SDS011;2582;48.770;9.190;2022-07-22T10:29:26;11.63;;;9.43;;
5127;SDS011;2582;48.770;9.190;2022-07-22T10:34:40;10.83;;;9.87;;
5127;SDS011;2582;48.770;9.190;2022-07-22T10:40:12;10.10;;;9.30;;
5127;SDS011;2582;48.770;9.190;2022-07-22T10:45:27;10.10;;;9.30;;
5127;SDS011;2582;48.770;9.190;2022-07-22T10:47:56;10.33;;;9.23;;
5127;SDS011;2582;48.770;9.190;2022-07-22T10:53:04;9.50;;;8.70;;
5127;SDS011;2582;48.770;9.190;2022-07-22T10:55:30;10.17;;;9.37;;
5127;SDS011;2582;48.770;9.190;2022-07-22T10:57:56;9.43;;;8.67;;
5127;SDS011;2582;48.770;9.190;2022-07-22T11:00:21;9.30;;;8.50;;
5127;SDS011;2582;48.770;9.190;2022-07-22T11:02:47;8.97;;;8.27;;
5127;SDS011;2582;48.770;9.190;2022-07-22T11:05:13;8.73;;;8.03;;
5127;SDS011;2582;48.770;9.190;2022-07-22T11:07:48;8.90;;;8.10;;
5127;SDS011;2582;48.770;9.190;2022-07-22T11:10:15;8.83;;;8.20;;
5127;SDS011;2582;48.770;9.190;2022-07-22T11:12:42;9.30;;;8.50;;
5127;SDS011;2582;48.770;9.190;2022-07-22T11:15:08;13.03;;;8.67;;
5127;SDS011;2582;48.770;9.190;2022-07-22T11:17:36;9.23;;;8.33;;
5127;SDS011;2582;48.770;9.190;2022-07-22T11:20:03;8.80;;;7.97;;
5127;SDS011;2582;48.770;9.190;2022-07-22T11:22:30;10.67;;;9.57;;
5127;SDS011;2582;48.770;9.190;2022-07-22T11:24:56;9.73;;;8.93;;
5127;SDS011;2582;48.770;9.190;2022-07-22T11:27:24;9.93;;;9.03;;
5127;SDS011;2582;48.770;9.190;2022-07-22T11:29:51;9.20;;;8.40;;
5127;SDS011;2582;48.770;9.190;2022-07-22T11:32:22;8.43;;;7.73;;
5127;SDS011;2582;48.770;9.190;2022-07-22T11:34:48;7.70;;;7.07;;
5127;SDS011;2582;48.770;9.190;2022-07-22T11:37:15;8.20;;;7.53;;
5127;SDS011;2582;48.770;9.190;2022-07-22T11:39:45;7.70;;;7.00;;
5127;SDS011;2582;48.770;9.190;2022-07-22T11:42:11;7.67;;;7.13;;
5127;SDS011;2582;48.770;9.190;2022-07-22T11:44:38;7.10;;;6.50;;
5127;SDS011;2582;48.770;9.190;2022-07-22T11:47:05;6.50;;;6.00;;
5127;SDS011;2582;48.770;9.190;2022-07-22T11:49:32;7.63;;;6.50;;
5127;SDS011;2582;48.770;9.190;2022-07-22T11:52:00;6.10;;;5.60;;
5127;SDS011;2582;48.770;9.190;2022-07-22T11:54:29;6.53;;;6.07;;
5127;SDS011;2582;48.770;9.190;2022-07-22T11:56:55;6.27;;;5.87;;
5127;SDS011;2582;48.770;9.190;2022-07-22T11:59:21;6.43;;;5.93;;
5127;SDS011;2582;48.770;9.190;2022-07-22T12:01:47;6.67;;;6.00;;
5127;SDS011;2582;48.770;9.190;2022-07-22T12:04:17;6.60;;;6.10;;
5127;SDS011;2582;48.770;9.190;2022-07-22T12:06:46;6.60;;;6.00;;
5127;SDS011;2582;48.770;9.190;2022-07-22T12:09:16;7.63;;;6.93;;
5127;SDS011;2582;48.770;9.190;2022-07-22T12:11:51;6.90;;;6.40;;
5127;SDS011;2582;48.770;9.190;2022-07-22T12:14:20;6.90;;;6.33;;
5127;SDS011;2582;48.770;9.190;2022-07-22T12:17:01;6.40;;;6.00;;
5127;SDS011;2582;48.770;9.190;2022-07-22T12:19:27;7.47;;;6.37;;
5127;SDS011;2582;48.770;9.190;2022-07-22T12:21:55;6.30;;;5.80;;
5127;SDS011;2582;48.770;9.190;2022-07-22T12:26:52;6.10;;;5.63;;
5127;SDS011;2582;48.770;9.190;2022-07-22T12:29:20;5.97;;;5.57;;
5127;SDS011;2582;48.770;9.190;2022-07-22T12:31:52;5.87;;;5.37;;
5127;SDS011;2582;48.770;9.190;2022-07-22T12:34:39;6.57;;;6.03;;
5127;SDS011;2582;48.770;9.190;2022-07-22T12:37:41;6.70;;;6.07;;
5127;SDS011;2582;48.770;9.190;2022-07-22T12:42:37;5.97;;;5.57;;
5127;SDS011;2582;48.770;9.190;2022-07-22T12:45:06;6.47;;;5.97;;
5127;SDS011;2582;48.770;9.190;2022-07-22T12:47:49;6.60;;;6.00;;
5127;SDS011;2582;48.770;9.190;2022-07-22T12:50:16;6.23;;;5.73;;
5127;SDS011;2582;48.770;9.190;2022-07-22T12:52:45;6.50;;;6.00;;
5127;SDS011;2582;48.770;9.190;2022-07-22T12:55:12;6.23;;;5.73;;
5127;SDS011;2582;48.770;9.190;2022-07-22T12:57:37;6.07;;;5.57;;
5127;SDS011;2582;48.770;9.190;2022-07-22T13:00:03;6.37;;;5.93;;
5127;SDS011;2582;48.770;9.190;2022-07-22T13:02:29;6.20;;;5.80;;
5127;SDS011;2582;48.770;9.190;2022-07-22T13:04:55;5.77;;;5.37;;
5127;SDS011;2582;48.770;9.190;2022-07-22T13:07:20;6.23;;;5.80;;
5127;SDS011;2582;48.770;9.190;2022-07-22T13:09:46;5.80;;;5.40;;
5127;SDS011;2582;48.770;9.190;2022-07-22T13:12:11;5.87;;;5.30;;
5127;SDS011;2582;48.770;9.190;2022-07-22T13:14:37;5.10;;;4.70;;
5127;SDS011;2582;48.770;9.190;2022-07-22T13:17:03;6.17;;;5.67;;
5127;SDS011;2582;48.770;9.190;2022-07-22T13:19:28;5.60;;;5.17;;
5127;SDS011;2582;48.770;9.190;2022-07-22T13:21:54;5.20;;;4.80;;
5127;SDS011;2582;48.770;9.190;2022-07-22T13:24:20;5.30;;;4.90;;
5127;SDS011;2582;48.770;9.190;2022-07-22T13:26:45;5.10;;;4.73;;
5127;SDS011;2582;48.770;9.190;2022-07-22T13:29:11;5.43;;;4.93;;
5127;SDS011;2582;48.770;9.190;2022-07-22T13:31:37;5.30;;;4.80;;
5127;SDS011;2582;48.770;9.190;2022-07-22T13:34:03;5.17;;;4.87;;
5127;SDS011;2582;48.770;9.190;2022-07-22T13:36:28;6.30;;;5.07;;
5127;SDS011;2582;48.770;9.190;2022-07-22T13:38:57;5.60;;;5.30;;
5127;SDS011;2582;48.770;9.190;2022-07-22T13:41:23;5.17;;;4.87;;
5127;SDS011;2582;48.770;9.190;2022-07-22T13:43:49;5.63;;;5.13;;
5127;SDS011;2582;48.770;9.190;2022-07-22T13:46:16;5.20;;;4.80;;
5127;SDS011;2582;48.770;9.190;2022-07-22T13:48:43;4.90;;;4.60;;
5127;SDS011;2582;48.770;9.190;2022-07-22T13:51:09;6.13;;;5.53;;
5127;SDS011;2582;48.770;9.190;2022-07-22T13:53:35;5.50;;;5.10;;
5127;SDS011;2582;48.770;9.190;2022-07-22T13:56:01;5.80;;;5.40;;
5127;SDS011;2582;48.770;9.190;2022-07-22T13:58:27;4.97;;;4.60;;
5127;SDS011;2582;48.770;9.190;2022-07-22T14:00:52;6.07;;;5.67;;
5127;SDS011;2582;48.770;9.190;2022-07-22T14:03:18;5.50;;;5.10;;
5127;SDS011;2582;48.770;9.190;2022-07-22T14:05:44;5.60;;;5.20;;
5127;SDS011;2582;48.770;9.190;2022-07-22T14:08:10;4.97;;;4.67;;
5127;SDS011;2582;48.770;9.190;2022-07-22T14:10:35;6.63;;;5.67;;
5127;SDS011;2582;48.770;9.190;2022-07-22T14:13:01;5.30;;;4.87;;
5127;SDS011;2582;48.770;9.190;2022-07-22T14:15:27;5.47;;;5.07;;
5127;SDS011;2582;48.770;9.190;2022-07-22T14:17:53;4.77;;;4.43;;
5127;SDS011;2582;48.770;9.190;2022-07-22T14:20:19;5.83;;;5.43;;
5127;SDS011;2582;48.770;9.190;2022-07-22T14:22:44;5.70;;;4.93;;
5127;SDS011;2582;48.770;9.190;2022-07-22T14:25:10;6.00;;;5.03;;
5127;SDS011;2582;48.770;9.190;2022-07-22T14:27:36;5.50;;;5.03;;
5127;SDS011;2582;48.770;9.190;2022-07-22T14:30:01;5.70;;;5.10;;
5127;SDS011;2582;48.770;9.190;2022-07-22T14:32:27;5.60;;;5.00;;
5127;SDS011;2582;48.770;9.190;2022-07-22T14:34:53;6.20;;;5.70;;
5127;SDS011;2582;48.770;9.190;2022-07-22T14:37:18;5.70;;;5.30;;
5127;SDS011;2582;48.770;9.190;2022-07-22T14:39:44;6.17;;;5.53;;
5127;SDS011;2582;48.770;9.190;2022-07-22T14:42:10;7.07;;;5.27;;
5127;SDS011;2582;48.770;9.190;2022-07-22T14:44:35;5.57;;;5.07;;
5127;SDS011;2582;48.770;9.190;2022-07-22T14:47:01;5.80;;;5.40;;
5127;SDS011;2582;48.770;9.190;2022-07-22T14:49:27;5.53;;;5.13;;
5127;SDS011;2582;48.770;9.190;2022-07-22T14:51:52;5.27;;;4.87;;
5127;SDS011;2582;48.770;9.190;2022-07-22T14:54:18;4.70;;;4.40;;
5127;SDS011;2582;48.770;9.190;2022-07-22T14:56:44;5.00;;;4.60;;
5127;SDS011;2582;48.770;9.190;2022-07-22T14:59:10;7.03;;;5.33;;
5127;SDS011;2582;48.770;9.190;2022-07-22T15:01:35;5.60;;;5.00;;
5127;SDS011;2582;48.770;9.190;2022-07-22T15:04:01;5.70;;;5.30;;
5127;SDS011;2582;48.770;9.190;2022-07-22T15:06:27;5.83;;;5.33;;
5127;SDS011;2582;48.770;9.190;2022-07-22T15:08:52;5.83;;;5.43;;
5127;SDS011;2582;48.770;9.190;2022-07-22T15:11:18;5.07;;;4.77;;
5127;SDS011;2582;48.770;9.190;2022-07-22T15:13:44;6.13;;;5.53;;
5127;SDS011;2582;48.770;9.190;2022-07-22T15:16:09;5.05;;;4.55;;
5127;SDS011;2582;48.770;9.190;2022-07-22T15:18:35;4.95;;;4.55;;
5127;SDS011;2582;48.770;9.190;2022-07-22T15:21:01;5.80;;;5.40;;
5127;SDS011;2582;48.770;9.190;2022-07-22T15:23:27;6.07;;;5.57;;
5127;SDS011;2582;48.770;9.190;2022-07-22T15:25:54;6.10;;;5.70;;